Aviva — 5VCM5 — position and weather

sailwx.info

Track history (hours):
 
Tides and Currents Weather Stations Pressure Air Temp Water Temp Dewpoint Dewpoint Depression Visibility Wind Speed Wind Dir Waves Ship Positions

Aviva

Last reported at 2017-Oct-19 02:59 UTC. Time now 2017-Nov-23 05:51 UTC.
Position N 43°12' E 027°58'.
Warning: this ship's position is 35 days out of date.

Length 142 m; draft 5.4 m.

Type: Ship. MMSI: 671432000.

Date/timePositionNaut miles runAvg speedWind from/ knotsBaromVisibWave heightAir tempDewpointWater temp
2017-Oct-19 02:59N 43°12' E 027°58'  
2017-Oct-15 18:31N 43°08' E 028°39'0 1.1
2017-Oct-15 18:30N 43°08' E 028°39'1 0.8
2017-Oct-15 17:29N 43°08' E 028°38'128 5.1
2017-Oct-14 16:07N 41°00' E 028°60'1 5.8
2017-Oct-14 15:56N 40°59' E 028°60'3 5.5
2017-Oct-14 15:23N 40°57' E 028°58'2 4.5
2017-Oct-14 14:59N 40°56' E 028°56'3 1.7
2017-Oct-14 13:25N 40°58' E 028°54'0 0.0
2017-Oct-14 05:10N 40°58' E 028°54'0 0.0
2017-Oct-14 01:10N 40°58' E 028°54'0 0.0
2017-Oct-14 00:52N 40°58' E 028°54'0 0.0
2017-Oct-14 00:28N 40°58' E 028°54'0 0.0
2017-Oct-13 14:40N 40°58' E 028°54'0 0.0
2017-Oct-13 14:16N 40°58' E 028°54'  
Track history (hours):
 
Tides and Currents Weather Stations Pressure Air Temp Water Temp Dewpoint Dewpoint Depression Visibility Wind Speed Wind Dir Waves Ship Positions

Aviva

Last reported at 2017-Oct-19 02:59 UTC. Time now 2017-Nov-23 05:51 UTC.
Position N 43°12' E 027°58'.
Warning: this ship's position is 35 days out of date.

Length 142 m; draft 5.4 m.

Type: Ship. MMSI: 671432000.

Date/timePositionNaut miles runAvg speedWind from/ knotsBaromVisibWave heightAir tempDewpointWater temp
2017-Oct-19 02:59N 43°12' E 027°58'  
2017-Oct-15 18:31N 43°08' E 028°39'0 1.1
2017-Oct-15 18:30N 43°08' E 028°39'1 0.8
2017-Oct-15 17:29N 43°08' E 028°38'128 5.1
2017-Oct-14 16:07N 41°00' E 028°60'1 5.8
2017-Oct-14 15:56N 40°59' E 028°60'3 5.5
2017-Oct-14 15:23N 40°57' E 028°58'2 4.5
2017-Oct-14 14:59N 40°56' E 028°56'3 1.7
2017-Oct-14 13:25N 40°58' E 028°54'0 0.0
2017-Oct-14 05:10N 40°58' E 028°54'0 0.0
2017-Oct-14 01:10N 40°58' E 028°54'0 0.0
2017-Oct-14 00:52N 40°58' E 028°54'0 0.0
2017-Oct-14 00:28N 40°58' E 028°54'0 0.0
2017-Oct-13 14:40N 40°58' E 028°54'0 0.0
2017-Oct-13 14:16N 40°58' E 028°54'  

Dump ship's entire track history